Time;durP1;ratioP1;P1;durP2;ratioP2;P2;SDS_P1;SDS_P2;PMS_P1;PMS_P2;Temp;Humidity;BMP_temperature;BMP_pressure;BME280_temperature;BME280_humidity;BME280_pressure;Samples;Min_cycle;Max_cycle;Signal;HPM_P1;HPM_P2
2023/05/29 00:01:03;;;;;;;8.23;4.00;;;;;;;16.39;100.00;96247.78;6130261;23;20079;-85
2023/05/29 00:03:32;;;;;;;9.53;4.03;;;;;;;16.57;100.00;96245.44;6130721;23;20010;-84
2023/05/29 00:05:58;;;;;;;7.27;4.63;;;;;;;16.53;100.00;96238.84;6129318;23;20341;-85
2023/05/29 00:08:24;;;;;;;11.47;4.17;;;;;;;16.57;100.00;96245.44;6130369;23;20118;-85
2023/05/29 00:10:50;;;;;;;8.87;4.40;;;;;;;16.47;100.00;96240.47;6128419;23;20009;-84
2023/05/29 00:13:15;;;;;;;7.47;3.67;;;;;;;16.65;100.00;96247.91;6125091;23;20021;-85
2023/05/29 00:15:41;;;;;;;7.93;3.80;;;;;;;16.57;100.00;96248.09;6125084;23;20005;-84
2023/05/29 00:18:07;;;;;;;9.83;4.37;;;;;;;16.64;100.00;96242.81;6124732;23;20010;-85
2023/05/29 00:20:34;;;;;;;10.27;4.00;;;;;;;16.65;100.00;96245.25;6125840;23;20009;-85
2023/05/29 00:22:59;;;;;;;8.33;4.27;;;;;;;16.61;100.00;96251.16;6125170;23;20009;-85
2023/05/29 00:25:25;;;;;;;8.50;3.97;;;;;;;16.69;100.00;96243.84;6125281;23;20012;-85
2023/05/29 00:27:51;;;;;;;10.20;4.00;;;;;;;16.38;100.00;96246.94;6124164;23;20307;-85
2023/05/29 00:30:17;;;;;;;9.53;4.07;;;;;;;16.59;100.00;96243.38;6122626;23;20140;-84
2023/05/29 00:32:42;;;;;;;11.97;4.63;;;;;;;16.32;100.00;96244.25;6125184;23;19998;-85
2023/05/29 00:35:09;;;;;;;9.00;4.20;;;;;;;16.33;100.00;96238.78;6099694;23;20008;-86
2023/05/29 00:37:36;;;;;;;10.03;4.63;;;;;;;16.19;100.00;96237.84;6149146;23;20115;-84
2023/05/29 00:40:03;;;;;;;7.03;3.80;;;;;;;16.32;100.00;96233.63;6124235;23;20024;-85
2023/05/29 00:42:35;;;;;;;11.10;4.10;;;;;;;16.14;100.00;96236.81;6127708;23;20065;-85
2023/05/29 00:45:01;;;;;;;8.93;4.40;;;;;;;16.08;100.00;96240.22;6128571;23;20032;-85
2023/05/29 00:47:27;;;;;;;12.03;4.17;;;;;;;16.05;100.00;96232.66;6127276;23;20009;-85
2023/05/29 00:49:55;;;;;;;9.77;4.40;;;;;;;15.97;100.00;96238.94;6127266;23;20409;-85
2023/05/29 00:52:21;;;;;;;7.73;4.13;;;;;;;15.86;100.00;96236.78;6102822;23;20020;-85
2023/05/29 00:54:47;;;;;;;9.63;4.53;;;;;;;15.87;100.00;96238.44;6126597;23;20382;-85
2023/05/29 00:57:14;;;;;;;10.83;4.20;;;;;;;15.79;100.00;96231.44;6104506;23;20072;-85
2023/05/29 00:59:40;;;;;;;8.63;4.37;;;;;;;15.70;100.00;96230.75;6106797;23;20392;-85
2023/05/29 01:02:06;;;;;;;9.13;4.30;;;;;;;15.76;100.00;96234.47;6130563;23;20006;-85
2023/05/29 01:04:33;;;;;;;8.83;4.43;;;;;;;15.67;100.00;96228.50;6131515;23;20096;-85
2023/05/29 01:07:02;;;;;;;7.27;3.97;;;;;;;15.63;100.00;96227.22;6130831;23;20001;-85
2023/05/29 01:09:29;;;;;;;9.43;4.33;;;;;;;15.49;100.00;96228.06;6131407;23;20016;-85
2023/05/29 01:12:30;;;;;;;8.50;4.30;;;;;;;15.51;100.00;96226.88;6131367;23;20021;-85
2023/05/29 01:15:17;;;;;;;7.93;4.22;;;;;;;15.43;100.00;96229.69;6131417;23;20029;-85
2023/05/29 01:18:02;;;;;;;10.47;4.43;;;;;;;15.33;100.00;96229.19;6130987;23;20483;-85
2023/05/29 01:20:32;;;;;;;8.93;4.00;;;;;;;15.39;100.00;96235.53;6130475;23;20085;-85
2023/05/29 01:23:07;;;;;;;10.60;4.40;;;;;;;15.48;100.00;96229.09;6130887;23;20088;-85
2023/05/29 01:25:42;;;;;;;8.80;3.87;;;;;;;15.29;100.00;96227.88;6131405;23;20009;-84
2023/05/29 01:28:11;;;;;;;8.07;4.00;;;;;;;15.23;100.00;96229.47;6131197;23;20029;-85
2023/05/29 01:30:40;;;;;;;10.03;4.43;;;;;;;15.04;100.00;96227.44;6131122;23;20084;-85
2023/05/29 01:33:07;;;;;;;9.63;4.63;;;;;;;15.02;100.00;96221.50;6107202;23;20236;-85
2023/05/29 01:35:32;;;;;;;9.77;4.70;;;;;;;15.02;100.00;96219.69;6130761;23;20001;-85
2023/05/29 01:37:58;;;;;;;10.10;4.67;;;;;;;14.97;100.00;96216.78;6130629;23;20005;-85
2023/05/29 01:40:24;;;;;;;8.97;3.83;;;;;;;14.70;100.00;96225.41;6126171;23;20009;-85
2023/05/29 01:42:51;;;;;;;8.50;3.97;;;;;;;14.88;100.00;96227.66;6126049;23;20009;-85
2023/05/29 01:45:17;;;;;;;10.67;4.67;;;;;;;14.76;100.00;96222.84;6126017;23;20024;-85
2023/05/29 01:47:46;;;;;;;8.67;5.13;;;;;;;14.83;100.00;96225.56;6126951;23;20002;-85
2023/05/29 01:50:18;;;;;;;10.40;4.67;;;;;;;14.88;100.00;96227.66;6127138;23;20006;-84
2023/05/29 01:52:43;;;;;;;8.50;4.50;;;;;;;14.64;100.00;96229.63;6126934;23;20095;-85
2023/05/29 01:55:09;;;;;;;9.73;4.30;;;;;;;14.71;100.00;96224.41;6127239;23;20429;-85
2023/05/29 01:57:36;;;;;;;8.03;4.13;;;;;;;14.85;100.00;96224.41;6126527;23;20016;-85
2023/05/29 02:00:08;;;;;;;9.27;4.70;;;;;;;14.98;100.00;96220.22;6102324;23;20001;-85
2023/05/29 02:02:40;;;;;;;19.53;10.43;;;;;;;14.84;100.00;96217.44;6128629;23;20620;-85
2023/05/29 02:05:08;;;;;;;16.37;7.43;;;;;;;14.77;100.00;96213.06;6126215;23;20001;-84
2023/05/29 02:07:34;;;;;;;12.50;5.63;;;;;;;14.77;100.00;96210.44;6127190;23;20009;-85
2023/05/29 02:10:00;;;;;;;11.40;5.03;;;;;;;14.75;100.00;96220.38;6104597;23;20454;-85
2023/05/29 02:12:25;;;;;;;7.80;4.20;;;;;;;14.75;100.00;96223.84;6143299;23;19986;-84
2023/05/29 02:14:51;;;;;;;8.90;4.13;;;;;;;14.74;100.00;96227.50;6173597;23;20037;-84
2023/05/29 02:17:19;;;;;;;7.67;4.30;;;;;;;14.69;100.00;96223.75;6130967;23;20068;-85
2023/05/29 02:19:45;;;;;;;8.03;4.30;;;;;;;14.72;100.00;96224.25;6125606;23;20291;-84
2023/05/29 02:22:12;;;;;;;11.57;4.60;;;;;;;14.71;100.00;96211.97;6126335;23;20073;-85
2023/05/29 02:24:38;;;;;;;7.77;4.37;;;;;;;14.71;100.00;96219.09;6125490;23;20005;-85
2023/05/29 02:27:04;;;;;;;8.60;4.27;;;;;;;14.62;100.00;96215.75;6125733;23;20100;-84
2023/05/29 02:29:29;;;;;;;10.17;4.63;;;;;;;14.42;100.00;96209.34;6126794;23;20882;-85
2023/05/29 02:31:55;;;;;;;7.97;4.40;;;;;;;14.44;100.00;96216.09;6127070;23;20021;-84
2023/05/29 02:34:24;;;;;;;8.40;4.27;;;;;;;14.39;100.00;96218.50;6150479;23;20043;-84
2023/05/29 02:36:54;;;;;;;11.43;4.53;;;;;;;14.41;100.00;96221.75;6127118;23;20021;-84
2023/05/29 02:39:20;;;;;;;11.50;4.63;;;;;;;14.28;100.00;96222.38;6126104;23;20009;-85
2023/05/29 02:41:46;;;;;;;9.47;4.93;;;;;;;14.30;100.00;96219.56;6128884;23;20442;-84
2023/05/29 02:44:11;;;;;;;9.47;4.80;;;;;;;14.34;100.00;96220.84;6130868;23;20578;-85
2023/05/29 02:46:37;;;;;;;10.50;4.47;;;;;;;14.24;100.00;96226.41;6131060;23;20006;-84
2023/05/29 02:49:05;;;;;;;9.07;4.03;;;;;;;14.41;100.00;96224.41;6131104;23;20002;-84
2023/05/29 02:51:32;;;;;;;10.50;5.47;;;;;;;14.44;100.00;96228.50;6129195;23;20024;-85
2023/05/29 02:53:58;;;;;;;9.03;3.90;;;;;;;14.33;100.00;96217.38;6130230;23;20215;-85
2023/05/29 02:56:24;;;;;;;13.00;5.67;;;;;;;14.21;100.00;96223.31;6130187;23;20469;-84
2023/05/29 02:58:50;;;;;;;11.73;4.70;;;;;;;14.16;100.00;96223.88;6130241;23;20009;-85
2023/05/29 03:01:16;;;;;;;7.73;4.00;;;;;;;14.06;100.00;96216.19;6105799;23;20457;-85
2023/05/29 03:03:42;;;;;;;8.30;4.10;;;;;;;13.94;100.00;96222.09;6129834;23;20524;-84
2023/05/29 03:06:10;;;;;;;10.00;4.83;;;;;;;13.94;100.00;96222.91;6130026;23;20005;-85
2023/05/29 03:08:39;;;;;;;12.10;4.40;;;;;;;14.01;100.00;96225.66;6156131;23;20001;-85
2023/05/29 03:11:11;;;;;;;9.00;4.00;;;;;;;13.86;100.00;96228.28;6129108;23;20088;-84
2023/05/29 03:13:37;;;;;;;9.23;4.00;;;;;;;13.94;100.00;96222.09;6125017;23;20024;-85
2023/05/29 03:16:08;;;;;;;10.80;4.70;;;;;;;14.09;100.00;96217.66;6124914;23;20068;-84
2023/05/29 03:18:34;;;;;;;7.47;4.40;;;;;;;14.02;100.00;96222.84;6125762;23;20005;-85
2023/05/29 03:21:01;;;;;;;10.67;4.53;;;;;;;13.87;100.00;96217.53;6125274;23;20076;-84
2023/05/29 03:23:27;;;;;;;8.17;4.20;;;;;;;13.77;100.00;96221.44;6101170;23;20085;-85
2023/05/29 03:25:53;;;;;;;7.17;3.87;;;;;;;13.86;100.00;96223.81;6125719;23;20036;-85
2023/05/29 03:28:18;;;;;;;11.20;5.03;;;;;;;13.82;100.00;96222.56;6125994;23;20009;-84
2023/05/29 03:30:45;;;;;;;8.60;3.90;;;;;;;13.83;100.00;96213.59;6125462;23;20587;-84
2023/05/29 03:33:14;;;;;;;11.80;5.00;;;;;;;13.80;100.00;96216.59;6125572;23;20100;-83
2023/05/29 03:36:00;;;;;;;9.37;4.57;;;;;;;13.80;100.00;96216.59;6150934;23;20009;-85
2023/05/29 03:38:26;;;;;;;9.33;4.53;;;;;;;13.81;100.00;96210.31;6150905;23;20001;-84
2023/05/29 03:40:55;;;;;;;8.33;4.00;;;;;;;13.90;100.00;96214.53;6101661;23;20016;-84
2023/05/29 03:43:20;;;;;;;9.13;4.13;;;;;;;13.74;100.00;96219.16;6129630;23;20001;-85
2023/05/29 03:45:47;;;;;;;11.43;4.17;;;;;;;13.93;100.00;96215.19;6133983;23;20112;-85
2023/05/29 03:48:14;;;;;;;8.87;4.70;;;;;;;13.97;100.00;96213.81;6131053;23;20433;-84
2023/05/29 03:50:40;;;;;;;11.13;4.93;;;;;;;13.72;100.00;96213.25;6130545;23;20088;-85
2023/05/29 03:53:06;;;;;;;8.50;4.80;;;;;;;13.96;100.00;96206.88;6131256;23;20382;-84
2023/05/29 03:55:31;;;;;;;9.47;4.70;;;;;;;13.78;100.00;96216.00;6142444;23;20016;-84
2023/05/29 03:57:58;;;;;;;9.77;4.23;;;;;;;13.56;100.00;96208.91;6135581;23;20065;-85
2023/05/29 04:00:24;;;;;;;9.17;4.20;;;;;;;13.84;100.00;96217.88;6141918;23;20080;-84
2023/05/29 04:02:55;;;;;;;9.23;4.93;;;;;;;14.03;100.00;96218.38;6132802;23;20449;-85
2023/05/29 04:05:21;;;;;;;7.30;4.00;;;;;;;14.22;100.00;96220.50;6108325;23;20057;-84
2023/05/29 04:07:47;;;;;;;10.10;4.30;;;;;;;14.20;100.00;96214.56;6132064;23;20009;-84
2023/05/29 04:10:14;;;;;;;8.83;4.30;;;;;;;14.05;100.00;96230.44;6133151;23;20466;-85
2023/05/29 04:12:40;;;;;;;8.80;4.80;;;;;;;13.85;100.00;96227.47;6129733;23;20056;-84
2023/05/29 04:15:06;;;;;;;9.20;4.83;;;;;;;14.05;100.00;96233.06;6128724;23;20052;-85
2023/05/29 04:17:32;;;;;;;8.37;4.40;;;;;;;14.16;100.00;96229.16;6128077;23;20028;-85
2023/05/29 04:19:58;;;;;;;7.67;4.13;;;;;;;14.53;100.00;96227.44;6128224;23;20009;-84
2023/05/29 04:22:23;;;;;;;8.87;4.60;;;;;;;14.57;100.00;96231.34;6128354;23;20063;-84
2023/05/29 04:24:49;;;;;;;9.17;4.40;;;;;;;14.55;100.00;96238.66;6152407;23;20100;-84
2023/05/29 04:27:22;;;;;;;7.93;4.17;;;;;;;14.69;100.00;96240.47;6126400;23;20009;-84
2023/05/29 04:29:47;;;;;;;8.75;4.20;;;;;;;14.77;100.00;96243.00;6126609;23;20083;-84
2023/05/29 04:32:13;;;;;;;7.97;4.27;;;;;;;14.84;100.00;96243.91;6126738;23;20009;-84
2023/05/29 04:34:39;;;;;;;7.73;5.07;;;;;;;14.90;100.00;96247.66;6126351;23;20092;-85
2023/05/29 04:37:05;;;;;;;9.60;4.77;;;;;;;15.01;100.00;96257.75;6127462;23;20005;-84
2023/05/29 04:39:32;;;;;;;10.23;4.43;;;;;;;14.80;100.00;96258.53;6127325;23;20005;-84
2023/05/29 04:42:01;;;;;;;9.47;4.60;;;;;;;15.05;100.00;96260.84;6105512;23;20430;-85
2023/05/29 04:44:27;;;;;;;10.20;4.57;;;;;;;15.16;100.00;96251.63;6132726;23;20011;-84
2023/05/29 04:46:53;;;;;;;8.97;5.17;;;;;;;15.17;100.00;96256.72;6131942;23;20402;-85
2023/05/29 04:49:20;;;;;;;12.17;4.57;;;;;;;15.17;100.00;96259.38;6106867;23;20010;-85
2023/05/29 04:51:46;;;;;;;8.73;4.87;;;;;;;15.05;100.00;96263.50;6157630;23;20025;-85
2023/05/29 04:54:12;;;;;;;8.37;4.13;;;;;;;15.29;100.00;96252.56;6132001;23;20002;-84
2023/05/29 04:56:42;;;;;;;8.60;4.63;;;;;;;15.39;100.00;96262.88;6131491;23;20021;-85
2023/05/29 04:59:10;;;;;;;11.83;5.77;;;;;;;15.46;100.00;96265.56;6132846;23;20253;-84
2023/05/29 05:01:36;;;;;;;10.50;5.20;;;;;;;15.50;100.00;96272.16;6129073;23;20044;-85
2023/05/29 05:04:01;;;;;;;11.23;5.47;;;;;;;15.59;100.00;96268.34;6153256;23;20064;-85
2023/05/29 05:06:28;;;;;;;8.80;4.57;;;;;;;15.75;100.00;96268.13;6153246;23;20080;-85
2023/05/29 05:08:55;;;;;;;9.13;5.17;;;;;;;15.94;100.00;96266.66;6162529;23;20009;-85
2023/05/29 05:11:22;;;;;;;10.37;4.93;;;;;;;16.06;100.00;96264.28;6130867;23;19997;-85
2023/05/29 05:13:48;;;;;;;10.03;4.57;;;;;;;16.13;100.00;96274.94;6103216;23;20096;-85
2023/05/29 05:16:13;;;;;;;8.23;4.50;;;;;;;16.29;100.00;96273.84;6126211;23;20045;-85
2023/05/29 05:18:40;;;;;;;8.70;4.97;;;;;;;16.45;100.00;96270.88;6128120;23;20033;-85
2023/05/29 05:21:07;;;;;;;8.90;4.23;;;;;;;16.81;100.00;96269.88;6127478;23;20013;-84
2023/05/29 05:23:35;;;;;;;10.77;4.20;;;;;;;17.01;100.00;96265.47;6125859;23;20333;-85
2023/05/29 05:26:04;;;;;;;8.43;4.37;;;;;;;16.94;100.00;96277.91;6126708;23;20012;-84
2023/05/29 05:28:33;;;;;;;8.10;4.57;;;;;;;17.06;100.00;96281.63;6127517;23;19997;-85
2023/05/29 05:30:59;;;;;;;12.40;5.10;;;;;;;17.25;100.00;96290.69;6127140;23;20041;-85
2023/05/29 05:33:41;;;;;;;8.73;4.47;;;;;;;17.44;100.00;96284.63;6126743;23;20005;-85
2023/05/29 05:36:07;;;;;;;8.13;3.90;;;;;;;17.59;100.00;96288.94;6126171;23;20457;-85
2023/05/29 05:38:33;;;;;;;8.80;4.17;;;;;;;17.73;100.00;96287.94;6126340;23;20036;-85
2023/05/29 05:40:59;;;;;;;10.63;4.20;;;;;;;17.73;100.00;96287.13;6128317;23;20005;-85
2023/05/29 05:43:30;;;;;;;8.10;4.40;;;;;;;18.05;100.00;96280.22;6155451;23;20013;-85
2023/05/29 05:46:07;;;;;;;9.40;4.50;;;;;;;18.23;100.00;96277.75;6127142;23;20786;-86
2023/05/29 05:48:35;;;;;;;8.57;4.33;;;;;;;18.34;100.00;96287.78;6131135;23;20013;-86
2023/05/29 05:51:01;;;;;;;7.63;4.23;;;;;;;18.29;100.00;96287.59;6131574;23;20058;-85
2023/05/29 05:53:26;;;;;;;9.47;4.60;;;;;;;18.60;100.00;96292.25;6132145;23;20426;-84
2023/05/29 05:55:53;;;;;;;9.23;4.33;;;;;;;18.80;100.00;96294.06;6130689;23;20005;-85
2023/05/29 05:58:19;;;;;;;8.33;4.37;;;;;;;19.08;100.00;96291.13;6131677;23;20462;-85
2023/05/29 06:00:45;;;;;;;8.47;4.57;;;;;;;19.17;100.00;96292.50;6131547;23;20021;-86
2023/05/29 06:03:11;;;;;;;8.07;4.37;;;;;;;19.06;100.00;96288.66;6131312;23;20016;-84
2023/05/29 06:05:57;;;;;;;7.33;3.87;;;;;;;19.72;99.88;96284.06;6155099;23;20080;-86
2023/05/29 06:08:34;;;;;;;8.07;4.00;;;;;;;20.05;99.44;96293.66;6131942;23;20021;-86
2023/05/29 06:11:00;;;;;;;11.43;4.90;;;;;;;19.97;100.00;96300.09;6130704;23;20079;-86
2023/05/29 06:13:27;;;;;;;9.20;4.37;;;;;;;20.39;94.24;96303.03;6126330;23;20013;-86
2023/05/29 06:15:58;;;;;;;7.57;4.00;;;;;;;20.44;98.81;96311.19;6126299;23;20141;-85
2023/05/29 06:18:23;;;;;;;11.57;4.30;;;;;;;20.40;99.50;96304.66;6126478;23;20017;-86
2023/05/29 06:20:49;;;;;;;8.10;4.60;;;;;;;20.86;97.90;96309.59;6126958;23;20013;-86
2023/05/29 06:23:15;;;;;;;7.15;4.07;;;;;;;20.90;94.03;96302.75;6126843;23;20017;-86
2023/05/29 06:25:41;;;;;;;7.93;4.13;;;;;;;20.75;92.35;96307.63;6126912;23;20005;-86
2023/05/29 06:28:07;;;;;;;9.07;4.55;;;;;;;21.47;94.77;96305.19;6126108;23;20011;-86
2023/05/29 06:30:33;;;;;;;8.30;4.25;;;;;;;21.65;92.02;96307.81;6102472;23;20015;-85
2023/05/29 06:32:59;;;;;;;9.73;4.60;;;;;;;21.39;90.77;96308.16;6126772;23;20006;-86
2023/05/29 06:35:30;;;;;;;7.93;4.07;;;;;;;22.01;89.65;96314.09;6128122;23;20071;-86
2023/05/29 06:37:56;;;;;;;9.23;4.55;;;;;;;21.98;86.17;96319.09;6127179;23;20009;-85
2023/05/29 06:40:22;;;;;;;9.00;5.10;;;;;;;22.49;81.49;96321.19;6127643;23;20009;-86
2023/05/29 06:42:48;;;;;;;8.35;4.30;;;;;;;22.35;80.54;96323.28;6130402;23;20344;-86
2023/05/29 06:45:15;;;;;;;10.20;4.47;;;;;;;22.40;79.43;96319.91;6131787;23;20014;-86
2023/05/29 06:47:42;;;;;;;8.73;4.30;;;;;;;22.85;75.27;96321.19;6131383;23;20033;-86
2023/05/29 06:50:08;;;;;;;7.65;3.80;;;;;;;23.34;73.18;96322.53;6132407;23;20446;-86
2023/05/29 06:52:34;;;;;;;7.97;3.97;;;;;;;22.84;76.85;96328.44;6131002;23;20010;-86
2023/05/29 06:55:20;;;;;;;7.07;3.58;;;;;;;23.58;72.81;96335.88;6135215;23;20035;-87
2023/05/29 06:57:47;;;;;;;9.30;4.93;;;;;;;24.22;69.38;96326.59;6132846;23;20016;-87
2023/05/29 07:00:14;;;;;;;8.55;4.18;;;;;;;23.38;71.20;96347.84;6132548;23;20068;-87
2023/05/29 07:03:27;;;;;;;8.60;4.28;;;;;;;24.69;63.38;96336.25;6135489;23;20018;-87
2023/05/29 07:06:21;;;;;;;10.00;5.18;;;;;;;24.83;59.88;96342.09;6103343;23;20005;-87
2023/05/29 07:08:50;;;;;;;11.68;6.18;;;;;;;24.98;60.76;96344.97;6133168;23;20017;-87
2023/05/29 07:11:20;;;;;;;8.70;4.03;;;;;;;25.61;55.07;96332.09;6132824;23;20682;-87
2023/05/29 07:17:10;;;;;;;19.58;5.18;;;;;;;25.44;51.00;96348.31;6151985;23;20020;-87
2023/05/29 07:19:38;;;;;;;8.52;3.92;;;;;;;25.74;53.67;96336.28;6128546;23;20016;-87
2023/05/29 07:22:07;;;;;;;7.90;4.28;;;;;;;26.04;49.99;96342.00;6130107;23;20035;-87
2023/05/29 07:24:35;;;;;;;8.48;4.13;;;;;;;26.19;49.38;96332.44;6129112;23;20009;-87
2023/05/29 07:27:35;;;;;;;9.63;4.40;;;;;;;26.41;47.27;96330.47;6145495;23;20036;-86
2023/05/29 07:30:02;;;;;;;8.18;3.85;;;;;;;24.62;50.28;96341.78;6126443;23;20091;-86
2023/05/29 07:32:42;;;;;;;7.00;3.70;;;;;;;25.23;51.25;96335.69;6152567;23;20035;-87
2023/05/29 07:35:52;;;;;;;7.45;3.55;;;;;;;26.22;46.17;96340.81;6148232;23;20006;-87
2023/05/29 07:38:21;;;;;;;9.63;3.92;;;;;;;26.65;43.19;96335.53;6154480;23;20005;-87
2023/05/29 07:40:51;;;;;;;8.18;3.83;;;;;;;25.95;44.75;96345.41;6129410;23;20090;-87
2023/05/29 07:43:37;;;;;;;6.95;3.67;;;;;;;26.57;42.86;96336.84;6137511;23;20005;-87
2023/05/29 07:46:05;;;;;;;5.90;3.40;;;;;;;26.72;41.33;96338.81;6144302;23;20013;-85
2023/05/29 07:48:31;;;;;;;7.72;4.00;;;;;;;26.68;42.64;96351.22;6149576;23;20002;-86
2023/05/29 07:50:58;;;;;;;7.53;3.67;;;;;;;25.93;43.11;96350.25;6143991;23;20032;-86
2023/05/29 07:53:26;;;;;;;7.40;3.78;;;;;;;26.89;41.31;96346.75;6118812;23;20092;-86
2023/05/29 07:55:52;;;;;;;8.75;3.80;;;;;;;27.47;40.12;96353.06;6129937;23;20632;-86
2023/05/29 07:58:18;;;;;;;7.45;4.20;;;;;;;27.14;40.13;96346.13;6130946;23;20035;-86
2023/05/29 08:00:45;;;;;;;9.35;3.95;;;;;;;28.69;39.00;96347.09;6131131;23;20025;-86
2023/05/29 08:03:11;;;;;;;7.18;3.58;;;;;;;28.51;37.68;96350.38;6130800;23;20540;-86
2023/05/29 08:06:00;;;;;;;6.88;3.72;;;;;;;28.63;36.85;96345.47;6134687;23;20012;-85
2023/05/29 08:08:27;;;;;;;8.65;4.80;;;;;;;28.50;36.99;96354.13;6132286;23;20017;-86
2023/05/29 08:10:53;;;;;;;8.38;3.63;;;;;;;28.30;38.55;96360.31;6130907;23;20017;-86
2023/05/29 08:13:19;;;;;;;7.28;3.80;;;;;;;28.32;37.74;96356.25;6129949;23;20013;-86
2023/05/29 08:15:46;;;;;;;8.05;3.97;;;;;;;28.84;36.91;96344.38;6131177;23;20033;-86
2023/05/29 08:18:12;;;;;;;6.47;3.78;;;;;;;28.90;36.94;96347.88;6130878;23;20024;-87
2023/05/29 08:20:37;;;;;;;8.13;4.35;;;;;;;29.67;36.74;96345.81;6130683;23;20021;-86
2023/05/29 08:23:03;;;;;;;10.52;5.00;;;;;;;29.94;36.60;96350.81;6131108;23;20592;-86
2023/05/29 08:25:29;;;;;;;8.07;4.53;;;;;;;29.59;35.81;96349.06;6125027;23;20006;-85
2023/05/29 08:27:54;;;;;;;9.45;6.35;;;;;;;30.68;35.65;96335.38;6123325;23;20009;-86
2023/05/29 08:30:20;;;;;;;14.00;9.77;;;;;;;30.67;34.23;96341.09;6124289;23;20005;-86
2023/05/29 08:32:46;;;;;;;9.40;4.03;;;;;;;30.74;33.01;96334.22;6126428;23;19993;-86
2023/05/29 08:35:12;;;;;;;7.20;3.38;;;;;;;31.22;32.26;96331.63;6124531;23;20016;-86
2023/05/29 08:37:38;;;;;;;8.50;3.58;;;;;;;29.75;33.83;96339.81;6123899;23;20001;-85
2023/05/29 08:40:08;;;;;;;5.90;3.28;;;;;;;28.94;34.79;96348.97;6124918;23;20006;-86
2023/05/29 08:42:39;;;;;;;9.43;3.80;;;;;;;29.35;34.23;96340.78;6122376;23;20016;-86
2023/05/29 08:45:10;;;;;;;7.72;3.47;;;;;;;27.71;34.64;96348.81;6124414;23;20717;-86
2023/05/29 08:47:40;;;;;;;7.30;3.85;;;;;;;29.06;34.59;96341.38;6123770;23;20397;-86
2023/05/29 08:50:07;;;;;;;6.53;3.47;;;;;;;29.29;33.12;96339.97;6099903;23;20529;-86
2023/05/29 08:52:37;;;;;;;8.05;4.10;;;;;;;28.56;33.16;96342.22;6100901;23;20005;-86
2023/05/29 08:55:04;;;;;;;6.78;3.00;;;;;;;30.36;30.93;96343.25;6130424;23;20033;-86
2023/05/29 08:57:30;;;;;;;8.60;2.85;;;;;;;30.14;30.14;96344.44;6132434;23;20013;-86
2023/05/29 08:59:57;;;;;;;6.75;3.40;;;;;;;28.65;30.93;96356.84;6158816;23;20084;-86
2023/05/29 09:02:24;;;;;;;9.75;3.20;;;;;;;28.41;32.82;96356.56;6133553;23;20058;-85
2023/05/29 09:04:49;;;;;;;8.30;3.60;;;;;;;27.47;33.77;96351.16;6133181;23;20009;-86
2023/05/29 09:07:17;;;;;;;8.15;3.55;;;;;;;28.37;34.16;96353.56;6133184;23;20013;-86
2023/05/29 09:09:46;;;;;;;7.72;3.53;;;;;;;30.11;32.09;96341.50;6133709;23;20033;-86
2023/05/29 09:12:12;;;;;;;6.47;3.08;;;;;;;29.52;31.15;96352.06;6103928;23;20063;-86
2023/05/29 09:14:42;;;;;;;6.00;3.20;;;;;;;29.49;31.00;96346.41;6124395;23;20017;-86
2023/05/29 09:17:09;;;;;;;7.00;2.90;;;;;;;30.53;29.46;96338.22;6101191;23;20037;-86
2023/05/29 09:19:37;;;;;;;6.85;3.20;;;;;;;29.47;30.57;96354.78;6124511;23;20005;-86
2023/05/29 09:22:09;;;;;;;5.90;3.05;;;;;;;31.04;28.21;96345.13;6125495;23;20005;-86
2023/05/29 09:24:37;;;;;;;7.28;3.25;;;;;;;31.38;29.57;96345.03;6125008;23;20433;-86
2023/05/29 09:27:07;;;;;;;5.45;3.03;;;;;;;30.73;29.11;96340.78;6125379;23;20012;-86
2023/05/29 09:29:46;;;;;;;5.55;2.92;;;;;;;29.90;29.95;96348.94;6124529;23;20025;-86
2023/05/29 09:32:18;;;;;;;4.78;3.03;;;;;;;30.01;29.62;96356.75;6123915;23;20013;-86
2023/05/29 09:34:45;;;;;;;6.18;3.33;;;;;;;29.53;29.76;96358.31;6124239;23;20017;-86
2023/05/29 09:37:12;;;;;;;7.60;3.10;;;;;;;29.43;30.09;96361.06;6125736;23;20009;-87
2023/05/29 09:39:51;;;;;;;6.65;3.42;;;;;;;28.33;30.56;96366.00;6125504;23;20441;-86
2023/05/29 09:42:17;;;;;;;7.57;3.50;;;;;;;29.14;31.06;96364.38;6127900;23;20001;-87
2023/05/29 09:44:46;;;;;;;6.05;3.03;;;;;;;30.35;28.99;96361.44;6131485;23;20064;-87
2023/05/29 09:47:17;;;;;;;7.72;3.47;;;;;;;30.15;28.06;96364.25;6107199;23;20033;-87
2023/05/29 09:49:43;;;;;;;6.68;3.05;;;;;;;31.16;27.13;96370.00;6131393;23;20489;-87
2023/05/29 09:52:15;;;;;;;9.55;2.67;;;;;;;28.55;30.00;96367.66;6131920;23;20040;-86
2023/05/29 09:54:42;;;;;;;;;;;;;;;30.60;27.29;96371.28;6108316;23;20005;-86
2023/05/29 09:57:09;;;;;;;6.18;2.90;;;;;;;28.80;29.47;96367.66;6131414;23;19967;-86
2023/05/29 09:59:36;;;;;;;7.63;3.17;;;;;;;28.60;31.35;96370.38;6131787;23;20032;-87
2023/05/29 10:02:07;;;;;;;6.40;3.35;;;;;;;29.63;30.99;96371.03;6131381;23;20028;-87
2023/05/29 10:04:36;;;;;;;6.57;3.65;;;;;;;30.18;28.83;96380.81;6131488;23;20013;-86
2023/05/29 10:07:09;;;;;;;4.35;2.60;;;;;;;28.95;29.26;96371.44;6130717;23;20020;-86
2023/05/29 10:09:41;;;;;;;6.95;3.30;;;;;;;30.71;28.27;96363.84;6131515;23;20032;-86
2023/05/29 10:12:08;;;;;;;5.10;2.85;;;;;;;30.16;28.28;96357.75;6126980;23;20451;-86
2023/05/29 10:14:35;;;;;;;7.53;3.55;;;;;;;30.58;29.38;96357.16;6099565;23;20020;-86
2023/05/29 10:17:06;;;;;;;10.18;3.35;;;;;;;29.46;28.62;96365.91;6124516;23;20029;-86
2023/05/29 10:19:33;;;;;;;6.40;2.92;;;;;;;29.46;29.26;96366.72;6124606;23;20009;-87
2023/05/29 10:22:01;;;;;;;7.38;3.50;;;;;;;30.15;29.92;96356.09;6124418;23;20452;-86
2023/05/29 10:24:28;;;;;;;6.22;3.08;;;;;;;30.87;28.70;96349.09;6124816;23;20092;-86
2023/05/29 10:26:55;;;;;;;11.73;4.05;;;;;;;29.36;30.70;96355.94;6125012;23;20112;-86
2023/05/29 10:29:34;;;;;;;7.40;3.47;;;;;;;29.81;29.81;96357.69;6125427;23;20056;-87
2023/05/29 10:32:21;;;;;;;5.97;3.03;;;;;;;30.47;29.03;96358.34;6128621;23;20013;-87
2023/05/29 10:34:56;;;;;;;7.10;3.42;;;;;;;30.95;27.74;96347.63;6151019;23;20010;-85
2023/05/29 10:37:37;;;;;;;6.80;4.10;;;;;;;31.03;27.36;96349.75;6127009;23;20005;-86
2023/05/29 10:40:12;;;;;;;6.88;3.20;;;;;;;29.86;29.88;96351.41;6124585;23;20005;-86
2023/05/29 10:42:45;;;;;;;8.55;3.10;;;;;;;29.47;27.92;96351.28;6127942;23;20072;-87
2023/05/29 10:45:31;;;;;;;6.70;3.13;;;;;;;27.59;30.87;96352.81;6131680;23;20013;-87
2023/05/29 10:48:36;;;;;;;4.40;2.65;;;;;;;28.00;32.48;96355.66;6131065;23;20010;-86
2023/05/29 10:51:02;;;;;;;6.10;3.05;;;;;;;29.53;29.98;96344.75;6104060;23;20013;-87
2023/05/29 10:53:31;;;;;;;6.03;3.20;;;;;;;29.50;28.55;96356.16;6131176;23;20077;-87
2023/05/29 10:56:00;;;;;;;5.43;2.95;;;;;;;29.21;29.89;96353.25;6131597;23;20020;-86
2023/05/29 10:58:27;;;;;;;7.40;3.28;;;;;;;29.77;28.43;96351.16;6131127;23;20005;-86
2023/05/29 11:00:56;;;;;;;8.48;3.30;;;;;;;30.35;27.55;96342.44;6130626;23;20032;-87
2023/05/29 11:03:29;;;;;;;6.15;2.60;;;;;;;29.96;27.47;96340.50;6131346;23;20014;-87
2023/05/29 11:06:16;;;;;;;6.03;3.30;;;;;;;29.05;28.15;96347.09;6131819;23;20013;-86
2023/05/29 11:08:47;;;;;;;9.48;3.60;;;;;;;30.84;26.36;96341.50;6132797;23;20009;-87
2023/05/29 11:11:28;;;;;;;6.22;3.10;;;;;;;31.09;27.50;96337.75;6131626;23;20011;-85
2023/05/29 11:13:56;;;;;;;7.95;3.20;;;;;;;31.29;25.94;96342.16;6125102;23;20014;-87
2023/05/29 11:16:30;;;;;;;7.20;3.50;;;;;;;30.50;25.92;96350.47;6124928;23;20009;-86
2023/05/29 11:19:07;;;;;;;5.75;3.40;;;;;;;30.06;27.80;96347.75;6125778;23;20096;-86
2023/05/29 11:21:39;;;;;;;6.93;2.88;;;;;;;31.28;25.90;96342.41;6125759;23;20037;-87
2023/05/29 11:24:06;;;;;;;6.50;3.55;;;;;;;31.49;25.87;96341.13;6126405;23;20719;-87
2023/05/29 11:26:33;;;;;;;7.20;3.42;;;;;;;30.90;27.34;96336.84;6126759;23;20069;-87
2023/05/29 11:29:00;;;;;;;5.40;3.03;;;;;;;30.38;26.99;96332.91;6129385;23;20141;-86
2023/05/29 11:31:30;;;;;;;6.72;3.20;;;;;;;31.80;26.26;96329.84;6132645;23;20005;-86
2023/05/29 11:34:00;;;;;;;7.82;3.55;;;;;;;31.87;25.67;96341.19;6130784;23;20056;-87
2023/05/29 11:36:26;;;;;;;8.60;3.38;;;;;;;31.22;25.90;96334.34;6099303;23;20048;-87
2023/05/29 11:38:52;;;;;;;5.18;3.25;;;;;;;30.88;25.85;96341.75;6123551;23;20618;-87